sensor_id;sensor_type;location;lat;lon;timestamp;temperature;humidity
35027;DHT22;60696;51.426;6.934;2023-10-19T04:02:09;13.80;99.90
35027;DHT22;60696;51.426;6.934;2023-10-19T04:04:46;13.80;99.90
35027;DHT22;60696;51.426;6.934;2023-10-19T04:07:14;13.80;99.90
35027;DHT22;60696;51.426;6.934;2023-10-19T04:09:51;13.80;99.90
35027;DHT22;60696;51.426;6.934;2023-10-19T04:12:33;13.90;99.90
35027;DHT22;60696;51.426;6.934;2023-10-19T04:15:02;13.80;99.90
35027;DHT22;60696;51.426;6.934;2023-10-19T04:17:41;13.90;99.90
35027;DHT22;60696;51.426;6.934;2023-10-19T04:20:09;13.90;99.90
35027;DHT22;60696;51.426;6.934;2023-10-19T04:22:50;13.90;99.90
35027;DHT22;60696;51.426;6.934;2023-10-19T04:25:17;13.80;99.90
35027;DHT22;60696;51.426;6.934;2023-10-19T04:27:48;13.80;99.90
35027;DHT22;60696;51.426;6.934;2023-10-19T04:30:15;13.80;99.90
35027;DHT22;60696;51.426;6.934;2023-10-19T04:32:48;13.80;99.90
35027;DHT22;60696;51.426;6.934;2023-10-19T04:35:15;13.80;99.90
35027;DHT22;60696;51.426;6.934;2023-10-19T04:37:53;13.80;99.90
35027;DHT22;60696;51.426;6.934;2023-10-19T04:40:20;13.90;99.90
35027;DHT22;60696;51.426;6.934;2023-10-19T04:42:46;13.80;99.90
35027;DHT22;60696;51.426;6.934;2023-10-19T04:45:13;13.80;99.90
35027;DHT22;60696;51.426;6.934;2023-10-19T04:47:39;13.80;99.90
35027;DHT22;60696;51.426;6.934;2023-10-19T04:50:05;13.90;99.90
35027;DHT22;60696;51.426;6.934;2023-10-19T04:52:31;13.90;99.90
35027;DHT22;60696;51.426;6.934;2023-10-19T04:54:58;13.90;99.90
35027;DHT22;60696;51.426;6.934;2023-10-19T04:57:24;13.90;99.90
35027;DHT22;60696;51.426;6.934;2023-10-19T04:59:51;13.90;99.90
35027;DHT22;60696;51.426;6.934;2023-10-19T05:02:17;13.90;99.90
35027;DHT22;60696;51.426;6.934;2023-10-19T05:04:43;13.90;99.90
35027;DHT22;60696;51.426;6.934;2023-10-19T05:07:09;13.90;99.90
35027;DHT22;60696;51.426;6.934;2023-10-19T05:09:40;13.90;99.90
35027;DHT22;60696;51.426;6.934;2023-10-19T05:12:06;13.80;99.90
35027;DHT22;60696;51.426;6.934;2023-10-19T05:14:38;13.80;99.90
35027;DHT22;60696;51.426;6.934;2023-10-19T05:17:08;13.80;99.90
35027;DHT22;60696;51.426;6.934;2023-10-19T05:19:38;13.80;99.90
35027;DHT22;60696;51.426;6.934;2023-10-19T05:22:08;13.80;99.90
35027;DHT22;60696;51.426;6.934;2023-10-19T05:24:35;13.90;99.90
35027;DHT22;60696;51.426;6.934;2023-10-19T05:27:01;13.90;99.90
35027;DHT22;60696;51.426;6.934;2023-10-19T05:29:27;13.90;99.90
35027;DHT22;60696;51.426;6.934;2023-10-19T05:31:53;13.90;99.90
35027;DHT22;60696;51.426;6.934;2023-10-19T05:34:23;13.90;99.90
35027;DHT22;60696;51.426;6.934;2023-10-19T05:36:49;13.90;99.90
35027;DHT22;60696;51.426;6.934;2023-10-19T05:39:18;13.90;99.90
35027;DHT22;60696;51.426;6.934;2023-10-19T05:41:44;14.00;99.90
35027;DHT22;60696;51.426;6.934;2023-10-19T05:44:10;14.00;99.90
35027;DHT22;60696;51.426;6.934;2023-10-19T05:46:39;13.90;99.90
35027;DHT22;60696;51.426;6.934;2023-10-19T05:49:06;13.90;99.90
35027;DHT22;60696;51.426;6.934;2023-10-19T05:51:32;13.90;99.90
35027;DHT22;60696;51.426;6.934;2023-10-19T05:53:58;13.80;99.90
35027;DHT22;60696;51.426;6.934;2023-10-19T05:56:30;13.70;99.90
35027;DHT22;60696;51.426;6.934;2023-10-19T05:58:56;13.70;99.90
35027;DHT22;60696;51.426;6.934;2023-10-19T06:01:23;13.70;99.90
35027;DHT22;60696;51.426;6.934;2023-10-19T06:03:50;13.70;99.90
35027;DHT22;60696;51.426;6.934;2023-10-19T06:06:16;13.70;99.90
35027;DHT22;60696;51.426;6.934;2023-10-19T06:08:42;13.60;99.90
35027;DHT22;60696;51.426;6.934;2023-10-19T06:11:08;13.70;99.90
35027;DHT22;60696;51.426;6.934;2023-10-19T06:13:33;13.60;99.90
35027;DHT22;60696;51.426;6.934;2023-10-19T06:15:59;13.70;99.90
35027;DHT22;60696;51.426;6.934;2023-10-19T06:18:24;13.60;99.90
35027;DHT22;60696;51.426;6.934;2023-10-19T06:20:50;13.70;99.90
35027;DHT22;60696;51.426;6.934;2023-10-19T06:23:17;13.60;99.90
35027;DHT22;60696;51.426;6.934;2023-10-19T06:25:43;13.70;99.90
35027;DHT22;60696;51.426;6.934;2023-10-19T06:28:09;13.70;99.90
35027;DHT22;60696;51.426;6.934;2023-10-19T06:30:37;13.70;99.90
35027;DHT22;60696;51.426;6.934;2023-10-19T06:33:03;13.80;99.90
35027;DHT22;60696;51.426;6.934;2023-10-19T06:35:30;13.80;99.90
35027;DHT22;60696;51.426;6.934;2023-10-19T06:37:57;13.80;99.90
35027;DHT22;60696;51.426;6.934;2023-10-19T06:40:24;13.80;99.90
35027;DHT22;60696;51.426;6.934;2023-10-19T06:42:54;13.80;99.90
35027;DHT22;60696;51.426;6.934;2023-10-19T06:45:21;13.80;99.90
35027;DHT22;60696;51.426;6.934;2023-10-19T06:47:48;13.90;99.90
35027;DHT22;60696;51.426;6.934;2023-10-19T06:50:17;13.90;99.90
35027;DHT22;60696;51.426;6.934;2023-10-19T06:52:43;13.90;99.90
35027;DHT22;60696;51.426;6.934;2023-10-19T06:55:10;13.90;99.90
35027;DHT22;60696;51.426;6.934;2023-10-19T06:57:47;13.90;99.90
35027;DHT22;60696;51.426;6.934;2023-10-19T07:00:18;13.90;99.90
35027;DHT22;60696;51.426;6.934;2023-10-19T07:02:55;13.90;99.90
35027;DHT22;60696;51.426;6.934;2023-10-19T07:05:21;14.00;99.90
35027;DHT22;60696;51.426;6.934;2023-10-19T07:07:49;14.00;99.90
35027;DHT22;60696;51.426;6.934;2023-10-19T07:10:17;14.10;99.90
35027;DHT22;60696;51.426;6.934;2023-10-19T07:12:45;14.10;99.90
35027;DHT22;60696;51.426;6.934;2023-10-19T07:15:12;14.10;99.90
35027;DHT22;60696;51.426;6.934;2023-10-19T07:17:41;14.20;99.90
35027;DHT22;60696;51.426;6.934;2023-10-19T07:20:08;14.20;99.90
35027;DHT22;60696;51.426;6.934;2023-10-19T07:22:35;14.20;99.90
35027;DHT22;60696;51.426;6.934;2023-10-19T07:25:08;14.30;99.90
35027;DHT22;60696;51.426;6.934;2023-10-19T07:27:34;14.30;99.90
35027;DHT22;60696;51.426;6.934;2023-10-19T07:30:04;14.30;99.90
35027;DHT22;60696;51.426;6.934;2023-10-19T07:32:37;14.40;99.90
35027;DHT22;60696;51.426;6.934;2023-10-19T07:35:04;14.50;99.90
35027;DHT22;60696;51.426;6.934;2023-10-19T07:37:29;14.40;99.90
35027;DHT22;60696;51.426;6.934;2023-10-19T07:39:57;14.50;99.90
35027;DHT22;60696;51.426;6.934;2023-10-19T07:42:25;14.50;99.90
35027;DHT22;60696;51.426;6.934;2023-10-19T07:44:51;14.50;99.90
35027;DHT22;60696;51.426;6.934;2023-10-19T07:47:17;14.50;99.90
35027;DHT22;60696;51.426;6.934;2023-10-19T07:49:42;14.50;99.90
35027;DHT22;60696;51.426;6.934;2023-10-19T07:52:09;14.50;99.90
35027;DHT22;60696;51.426;6.934;2023-10-19T07:54:37;14.60;99.90
35027;DHT22;60696;51.426;6.934;2023-10-19T07:57:03;14.60;99.90
35027;DHT22;60696;51.426;6.934;2023-10-19T07:59:34;14.70;99.90
35027;DHT22;60696;51.426;6.934;2023-10-19T08:02:01;14.70;99.90
35027;DHT22;60696;51.426;6.934;2023-10-19T08:04:28;14.70;99.90
35027;DHT22;60696;51.426;6.934;2023-10-19T08:06:54;14.70;99.90
35027;DHT22;60696;51.426;6.934;2023-10-19T08:09:21;14.80;99.90
35027;DHT22;60696;51.426;6.934;2023-10-19T08:11:49;14.70;99.90
35027;DHT22;60696;51.426;6.934;2023-10-19T08:14:14;14.80;99.90
35027;DHT22;60696;51.426;6.934;2023-10-19T08:16:43;14.80;99.90
35027;DHT22;60696;51.426;6.934;2023-10-19T08:19:08;14.80;99.90
35027;DHT22;60696;51.426;6.934;2023-10-19T08:21:35;14.90;99.90
35027;DHT22;60696;51.426;6.934;2023-10-19T08:24:00;14.90;99.90
35027;DHT22;60696;51.426;6.934;2023-10-19T08:26:31;15.00;99.90
35027;DHT22;60696;51.426;6.934;2023-10-19T08:28:56;15.20;99.90
35027;DHT22;60696;51.426;6.934;2023-10-19T08:31:24;15.20;99.90
35027;DHT22;60696;51.426;6.934;2023-10-19T08:33:50;15.30;99.90
35027;DHT22;60696;51.426;6.934;2023-10-19T08:36:19;15.40;99.90
35027;DHT22;60696;51.426;6.934;2023-10-19T08:38:46;15.50;99.90
35027;DHT22;60696;51.426;6.934;2023-10-19T08:41:15;15.60;99.90
35027;DHT22;60696;51.426;6.934;2023-10-19T08:43:41;15.70;99.90
35027;DHT22;60696;51.426;6.934;2023-10-19T08:46:07;15.90;99.90
35027;DHT22;60696;51.426;6.934;2023-10-19T08:48:37;16.00;99.90
35027;DHT22;60696;51.426;6.934;2023-10-19T08:51:08;16.10;99.90
35027;DHT22;60696;51.426;6.934;2023-10-19T08:53:37;16.10;99.90
35027;DHT22;60696;51.426;6.934;2023-10-19T08:56:06;16.10;99.90
35027;DHT22;60696;51.426;6.934;2023-10-19T08:58:33;16.10;99.90
35027;DHT22;60696;51.426;6.934;2023-10-19T09:00:59;16.10;99.90
35027;DHT22;60696;51.426;6.934;2023-10-19T09:03:32;16.00;99.90
35027;DHT22;60696;51.426;6.934;2023-10-19T09:06:01;16.10;99.90
35027;DHT22;60696;51.426;6.934;2023-10-19T09:08:27;16.00;99.90
35027;DHT22;60696;51.426;6.934;2023-10-19T09:11:12;16.10;99.90
35027;DHT22;60696;51.426;6.934;2023-10-19T09:13:46;16.10;99.90
35027;DHT22;60696;51.426;6.934;2023-10-19T09:16:16;16.20;99.90
35027;DHT22;60696;51.426;6.934;2023-10-19T09:18:42;16.30;99.90
35027;DHT22;60696;51.426;6.934;2023-10-19T09:21:08;16.50;99.90
35027;DHT22;60696;51.426;6.934;2023-10-19T09:23:37;16.60;99.90
35027;DHT22;60696;51.426;6.934;2023-10-19T09:26:04;16.90;99.90
35027;DHT22;60696;51.426;6.934;2023-10-19T09:28:31;17.00;99.90
35027;DHT22;60696;51.426;6.934;2023-10-19T09:31:00;17.30;99.90
35027;DHT22;60696;51.426;6.934;2023-10-19T09:33:27;17.50;99.90
35027;DHT22;60696;51.426;6.934;2023-10-19T09:35:52;17.80;99.90
35027;DHT22;60696;51.426;6.934;2023-10-19T09:38:19;17.90;99.90
35027;DHT22;60696;51.426;6.934;2023-10-19T09:40:48;17.90;99.90
35027;DHT22;60696;51.426;6.934;2023-10-19T09:43:33;17.90;99.90
35027;DHT22;60696;51.426;6.934;2023-10-19T09:46:01;17.90;99.90
35027;DHT22;60696;51.426;6.934;2023-10-19T09:48:31;17.90;99.90
35027;DHT22;60696;51.426;6.934;2023-10-19T09:51:01;17.90;99.90
35027;DHT22;60696;51.426;6.934;2023-10-19T09:53:29;17.90;99.90
35027;DHT22;60696;51.426;6.934;2023-10-19T09:56:00;18.10;99.90
35027;DHT22;60696;51.426;6.934;2023-10-19T09:58:35;18.30;99.90
35027;DHT22;60696;51.426;6.934;2023-10-19T10:01:03;18.30;99.90
35027;DHT22;60696;51.426;6.934;2023-10-19T10:06:11;18.20;99.90
35027;DHT22;60696;51.426;6.934;2023-10-19T10:08:44;18.40;99.90
35027;DHT22;60696;51.426;6.934;2023-10-19T10:11:19;18.90;99.90
35027;DHT22;60696;51.426;6.934;2023-10-19T10:13:46;20.40;99.90
35027;DHT22;60696;51.426;6.934;2023-10-19T10:16:17;22.50;99.90
35027;DHT22;60696;51.426;6.934;2023-10-19T10:18:43;25.60;96.10
35027;DHT22;60696;51.426;6.934;2023-10-19T10:21:15;28.40;79.00
35027;DHT22;60696;51.426;6.934;2023-10-19T10:24:04;30.30;54.10
35027;DHT22;60696;51.426;6.934;2023-10-19T10:26:57;30.90;41.60
35027;DHT22;60696;51.426;6.934;2023-10-19T10:29:22;30.90;41.20
35027;DHT22;60696;51.426;6.934;2023-10-19T10:31:52;29.50;42.90
35027;DHT22;60696;51.426;6.934;2023-10-19T10:37:06;30.90;41.20
35027;DHT22;60696;51.426;6.934;2023-10-19T10:39:34;32.40;39.90
35027;DHT22;60696;51.426;6.934;2023-10-19T10:42:03;33.50;36.40
35027;DHT22;60696;51.426;6.934;2023-10-19T10:44:44;34.30;31.40
35027;DHT22;60696;51.426;6.934;2023-10-19T10:47:18;34.40;29.70
35027;DHT22;60696;51.426;6.934;2023-10-19T10:49:53;34.20;28.30
35027;DHT22;60696;51.426;6.934;2023-10-19T10:55:10;35.90;25.90
35027;DHT22;60696;51.426;6.934;2023-10-19T10:57:42;36.00;26.10
35027;DHT22;60696;51.426;6.934;2023-10-19T11:00:12;35.30;24.50
35027;DHT22;60696;51.426;6.934;2023-10-19T11:02:45;33.10;27.00
35027;DHT22;60696;51.426;6.934;2023-10-19T11:05:16;30.90;30.20
35027;DHT22;60696;51.426;6.934;2023-10-19T11:10:30;27.50;39.90
35027;DHT22;60696;51.426;6.934;2023-10-19T11:13:17;26.30;43.80
35027;DHT22;60696;51.426;6.934;2023-10-19T11:15:53;25.30;48.40
35027;DHT22;60696;51.426;6.934;2023-10-19T11:18:35;24.40;55.00
35027;DHT22;60696;51.426;6.934;2023-10-19T11:21:09;23.80;62.50
35027;DHT22;60696;51.426;6.934;2023-10-19T11:23:42;23.50;67.30
35027;DHT22;60696;51.426;6.934;2023-10-19T11:26:13;24.40;70.90
35027;DHT22;60696;51.426;6.934;2023-10-19T11:28:39;25.30;61.20
35027;DHT22;60696;51.426;6.934;2023-10-19T11:31:22;26.80;60.70
35027;DHT22;60696;51.426;6.934;2023-10-19T11:33:48;29.30;46.80
35027;DHT22;60696;51.426;6.934;2023-10-19T11:36:15;31.40;35.90
35027;DHT22;60696;51.426;6.934;2023-10-19T11:38:42;33.20;31.10
35027;DHT22;60696;51.426;6.934;2023-10-19T11:41:08;34.00;28.40
35027;DHT22;60696;51.426;6.934;2023-10-19T11:43:35;33.20;28.50
35027;DHT22;60696;51.426;6.934;2023-10-19T11:46:01;32.90;28.40
35027;DHT22;60696;51.426;6.934;2023-10-19T11:48:27;31.70;29.10
35027;DHT22;60696;51.426;6.934;2023-10-19T11:50:53;30.10;32.20
35027;DHT22;60696;51.426;6.934;2023-10-19T11:53:19;28.30;35.70
35027;DHT22;60696;51.426;6.934;2023-10-19T11:55:45;26.90;40.50
35027;DHT22;60696;51.426;6.934;2023-10-19T11:58:13;25.30;47.10
35027;DHT22;60696;51.426;6.934;2023-10-19T12:00:40;23.80;56.80
35027;DHT22;60696;51.426;6.934;2023-10-19T12:03:09;23.00;65.70
35027;DHT22;60696;51.426;6.934;2023-10-19T12:05:35;22.30;74.90
35027;DHT22;60696;51.426;6.934;2023-10-19T12:08:02;21.80;82.80
35027;DHT22;60696;51.426;6.934;2023-10-19T12:10:28;21.40;89.60
35027;DHT22;60696;51.426;6.934;2023-10-19T12:13:04;21.00;92.40
35027;DHT22;60696;51.426;6.934;2023-10-19T12:15:31;20.80;95.10
35027;DHT22;60696;51.426;6.934;2023-10-19T12:17:58;20.90;97.00
35027;DHT22;60696;51.426;6.934;2023-10-19T12:20:24;20.70;98.30
35027;DHT22;60696;51.426;6.934;2023-10-19T12:22:50;20.70;98.40
35027;DHT22;60696;51.426;6.934;2023-10-19T12:25:22;20.60;99.70
35027;DHT22;60696;51.426;6.934;2023-10-19T12:27:54;20.50;99.90
35027;DHT22;60696;51.426;6.934;2023-10-19T12:30:20;20.60;99.90
35027;DHT22;60696;51.426;6.934;2023-10-19T12:32:48;20.70;99.70
35027;DHT22;60696;51.426;6.934;2023-10-19T12:35:16;20.60;99.70
35027;DHT22;60696;51.426;6.934;2023-10-19T12:37:45;20.50;99.90
35027;DHT22;60696;51.426;6.934;2023-10-19T12:40:18;20.40;99.90
35027;DHT22;60696;51.426;6.934;2023-10-19T12:42:52;20.30;99.90
35027;DHT22;60696;51.426;6.934;2023-10-19T12:45:21;20.10;99.90
35027;DHT22;60696;51.426;6.934;2023-10-19T12:47:47;20.00;99.90
35027;DHT22;60696;51.426;6.934;2023-10-19T12:50:14;19.90;99.90
35027;DHT22;60696;51.426;6.934;2023-10-19T12:52:39;19.70;99.90
35027;DHT22;60696;51.426;6.934;2023-10-19T12:55:06;19.60;99.90
35027;DHT22;60696;51.426;6.934;2023-10-19T12:57:32;19.50;99.90
35027;DHT22;60696;51.426;6.934;2023-10-19T12:59:59;19.40;99.90
35027;DHT22;60696;51.426;6.934;2023-10-19T13:02:32;19.20;99.90
35027;DHT22;60696;51.426;6.934;2023-10-19T13:04:57;19.10;99.90
35027;DHT22;60696;51.426;6.934;2023-10-19T13:07:25;19.00;99.90
35027;DHT22;60696;51.426;6.934;2023-10-19T13:09:51;18.90;99.90
35027;DHT22;60696;51.426;6.934;2023-10-19T13:12:17;18.80;99.90
35027;DHT22;60696;51.426;6.934;2023-10-19T13:14:48;18.80;99.90
35027;DHT22;60696;51.426;6.934;2023-10-19T13:17:14;18.80;99.90
35027;DHT22;60696;51.426;6.934;2023-10-19T13:19:40;18.80;99.90
35027;DHT22;60696;51.426;6.934;2023-10-19T13:22:05;18.70;99.90
35027;DHT22;60696;51.426;6.934;2023-10-19T13:24:33;18.60;99.90
35027;DHT22;60696;51.426;6.934;2023-10-19T13:27:06;18.60;99.90
35027;DHT22;60696;51.426;6.934;2023-10-19T13:29:35;18.40;99.90
35027;DHT22;60696;51.426;6.934;2023-10-19T13:32:06;18.40;99.90
35027;DHT22;60696;51.426;6.934;2023-10-19T13:34:54;18.40;99.90
35027;DHT22;60696;51.426;6.934;2023-10-19T13:37:20;18.30;99.90
35027;DHT22;60696;51.426;6.934;2023-10-19T13:39:51;18.30;99.90
35027;DHT22;60696;51.426;6.934;2023-10-19T13:42:21;18.20;99.90
35027;DHT22;60696;51.426;6.934;2023-10-19T13:44:49;18.30;99.90
35027;DHT22;60696;51.426;6.934;2023-10-19T13:47:15;18.20;99.90
35027;DHT22;60696;51.426;6.934;2023-10-19T13:49:41;18.20;99.90
35027;DHT22;60696;51.426;6.934;2023-10-19T13:52:08;18.30;99.90
35027;DHT22;60696;51.426;6.934;2023-10-19T13:54:35;18.20;99.90
35027;DHT22;60696;51.426;6.934;2023-10-19T13:57:03;18.10;99.90
35027;DHT22;60696;51.426;6.934;2023-10-19T13:59:32;18.20;99.90
35027;DHT22;60696;51.426;6.934;2023-10-19T14:01:59;18.10;99.90
35027;DHT22;60696;51.426;6.934;2023-10-19T14:04:24;18.10;99.90
35027;DHT22;60696;51.426;6.934;2023-10-19T14:06:51;18.20;99.90
35027;DHT22;60696;51.426;6.934;2023-10-19T14:09:17;18.20;99.90
35027;DHT22;60696;51.426;6.934;2023-10-19T14:11:43;18.30;99.90
35027;DHT22;60696;51.426;6.934;2023-10-19T14:14:10;18.20;99.90
35027;DHT22;60696;51.426;6.934;2023-10-19T14:16:36;18.10;99.90
35027;DHT22;60696;51.426;6.934;2023-10-19T14:19:02;18.00;99.90
35027;DHT22;60696;51.426;6.934;2023-10-19T14:21:32;18.00;99.90
35027;DHT22;60696;51.426;6.934;2023-10-19T14:24:03;18.10;99.90
35027;DHT22;60696;51.426;6.934;2023-10-19T14:26:29;18.00;99.90
35027;DHT22;60696;51.426;6.934;2023-10-19T14:28:56;17.80;99.90
35027;DHT22;60696;51.426;6.934;2023-10-19T14:31:21;17.80;99.90
35027;DHT22;60696;51.426;6.934;2023-10-19T14:33:47;17.80;99.90
35027;DHT22;60696;51.426;6.934;2023-10-19T14:36:12;17.80;99.90
35027;DHT22;60696;51.426;6.934;2023-10-19T14:38:38;17.70;99.90
35027;DHT22;60696;51.426;6.934;2023-10-19T14:41:04;17.60;99.90
35027;DHT22;60696;51.426;6.934;2023-10-19T14:43:30;17.60;99.90
35027;DHT22;60696;51.426;6.934;2023-10-19T14:45:56;17.50;99.90
35027;DHT22;60696;51.426;6.934;2023-10-19T14:48:24;17.50;99.90
35027;DHT22;60696;51.426;6.934;2023-10-19T14:50:51;17.50;99.90
35027;DHT22;60696;51.426;6.934;2023-10-19T14:53:17;17.40;99.90
35027;DHT22;60696;51.426;6.934;2023-10-19T14:55:43;17.30;99.90
35027;DHT22;60696;51.426;6.934;2023-10-19T14:58:11;17.30;99.90
35027;DHT22;60696;51.426;6.934;2023-10-19T15:00:37;17.40;99.90
35027;DHT22;60696;51.426;6.934;2023-10-19T15:03:07;17.30;99.90
35027;DHT22;60696;51.426;6.934;2023-10-19T15:05:34;17.20;99.90
35027;DHT22;60696;51.426;6.934;2023-10-19T15:08:01;17.10;99.90
35027;DHT22;60696;51.426;6.934;2023-10-19T15:10:28;17.10;99.90
35027;DHT22;60696;51.426;6.934;2023-10-19T15:12:54;17.10;99.90
35027;DHT22;60696;51.426;6.934;2023-10-19T15:15:22;17.10;99.90
35027;DHT22;60696;51.426;6.934;2023-10-19T15:17:48;17.00;99.90
35027;DHT22;60696;51.426;6.934;2023-10-19T15:20:16;17.10;99.90
35027;DHT22;60696;51.426;6.934;2023-10-19T15:22:43;16.90;99.90
35027;DHT22;60696;51.426;6.934;2023-10-19T15:25:10;16.90;99.90
35027;DHT22;60696;51.426;6.934;2023-10-19T15:27:45;16.90;99.90
35027;DHT22;60696;51.426;6.934;2023-10-19T15:30:12;16.90;99.90
35027;DHT22;60696;51.426;6.934;2023-10-19T15:32:42;16.90;99.90
35027;DHT22;60696;51.426;6.934;2023-10-19T15:35:09;16.90;99.90
35027;DHT22;60696;51.426;6.934;2023-10-19T15:37:39;16.90;99.90
35027;DHT22;60696;51.426;6.934;2023-10-19T15:40:08;16.90;99.90
35027;DHT22;60696;51.426;6.934;2023-10-19T15:42:39;16.90;99.90
35027;DHT22;60696;51.426;6.934;2023-10-19T15:45:10;16.90;99.90
35027;DHT22;60696;51.426;6.934;2023-10-19T15:47:37;17.00;99.90
35027;DHT22;60696;51.426;6.934;2023-10-19T15:50:03;17.00;99.90
35027;DHT22;60696;51.426;6.934;2023-10-19T15:52:29;16.90;99.90
35027;DHT22;60696;51.426;6.934;2023-10-19T15:54:57;16.90;99.90
35027;DHT22;60696;51.426;6.934;2023-10-19T15:57:23;16.90;99.90
35027;DHT22;60696;51.426;6.934;2023-10-19T15:59:50;16.80;99.90
35027;DHT22;60696;51.426;6.934;2023-10-19T16:02:16;16.80;99.90
35027;DHT22;60696;51.426;6.934;2023-10-19T16:04:44;16.80;99.90
35027;DHT22;60696;51.426;6.934;2023-10-19T16:07:11;16.90;99.90
35027;DHT22;60696;51.426;6.934;2023-10-19T16:09:38;16.90;99.90
35027;DHT22;60696;51.426;6.934;2023-10-19T16:12:04;17.00;99.90
35027;DHT22;60696;51.426;6.934;2023-10-19T16:14:30;17.00;99.90
35027;DHT22;60696;51.426;6.934;2023-10-19T16:16:55;17.00;99.90
35027;DHT22;60696;51.426;6.934;2023-10-19T16:19:22;17.10;99.90
35027;DHT22;60696;51.426;6.934;2023-10-19T16:21:49;17.00;99.90
35027;DHT22;60696;51.426;6.934;2023-10-19T16:24:14;16.90;99.90
35027;DHT22;60696;51.426;6.934;2023-10-19T16:26:41;16.80;99.90
35027;DHT22;60696;51.426;6.934;2023-10-19T16:29:07;16.70;99.90
35027;DHT22;60696;51.426;6.934;2023-10-19T16:31:42;16.60;99.90
35027;DHT22;60696;51.426;6.934;2023-10-19T16:34:12;16.50;99.90
35027;DHT22;60696;51.426;6.934;2023-10-19T16:36:41;16.50;99.90
35027;DHT22;60696;51.426;6.934;2023-10-19T16:39:08;16.40;99.90
35027;DHT22;60696;51.426;6.934;2023-10-19T16:41:38;16.40;99.90
35027;DHT22;60696;51.426;6.934;2023-10-19T16:44:04;16.30;99.90
35027;DHT22;60696;51.426;6.934;2023-10-19T16:46:32;16.20;99.90
35027;DHT22;60696;51.426;6.934;2023-10-19T16:48:58;16.20;99.90
35027;DHT22;60696;51.426;6.934;2023-10-19T16:51:24;16.10;99.90
35027;DHT22;60696;51.426;6.934;2023-10-19T16:53:50;16.00;99.90
35027;DHT22;60696;51.426;6.934;2023-10-19T16:56:16;16.00;99.90
35027;DHT22;60696;51.426;6.934;2023-10-19T16:58:42;16.00;99.90
35027;DHT22;60696;51.426;6.934;2023-10-19T17:01:08;16.00;99.90
35027;DHT22;60696;51.426;6.934;2023-10-19T17:03:39;15.90;99.90
35027;DHT22;60696;51.426;6.934;2023-10-19T17:06:09;15.90;99.90
35027;DHT22;60696;51.426;6.934;2023-10-19T17:08:35;15.90;99.90
35027;DHT22;60696;51.426;6.934;2023-10-19T17:11:01;15.80;99.90
35027;DHT22;60696;51.426;6.934;2023-10-19T17:13:30;15.90;99.90
35027;DHT22;60696;51.426;6.934;2023-10-19T17:15:56;16.00;99.90
35027;DHT22;60696;51.426;6.934;2023-10-19T17:18:22;15.90;99.90
35027;DHT22;60696;51.426;6.934;2023-10-19T17:20:48;15.90;99.90
35027;DHT22;60696;51.426;6.934;2023-10-19T17:23:14;15.90;99.90
35027;DHT22;60696;51.426;6.934;2023-10-19T17:25:39;15.80;99.90
35027;DHT22;60696;51.426;6.934;2023-10-19T17:28:06;15.80;99.90
35027;DHT22;60696;51.426;6.934;2023-10-19T17:30:33;15.70;99.90
35027;DHT22;60696;51.426;6.934;2023-10-19T17:33:00;15.80;99.90
35027;DHT22;60696;51.426;6.934;2023-10-19T17:35:26;15.80;99.90
35027;DHT22;60696;51.426;6.934;2023-10-19T17:37:52;15.70;99.90
35027;DHT22;60696;51.426;6.934;2023-10-19T17:40:18;15.70;99.90
35027;DHT22;60696;51.426;6.934;2023-10-19T17:42:45;15.70;99.90
35027;DHT22;60696;51.426;6.934;2023-10-19T17:45:11;15.60;99.90
35027;DHT22;60696;51.426;6.934;2023-10-19T17:47:37;15.70;99.90
35027;DHT22;60696;51.426;6.934;2023-10-19T17:50:03;15.70;99.90
35027;DHT22;60696;51.426;6.934;2023-10-19T17:52:29;15.60;99.90
35027;DHT22;60696;51.426;6.934;2023-10-19T17:54:54;15.70;99.90
35027;DHT22;60696;51.426;6.934;2023-10-19T17:57:21;15.60;99.90
35027;DHT22;60696;51.426;6.934;2023-10-19T17:59:47;15.50;99.90
35027;DHT22;60696;51.426;6.934;2023-10-19T18:02:12;15.50;99.90
35027;DHT22;60696;51.426;6.934;2023-10-19T18:04:38;15.60;99.90
35027;DHT22;60696;51.426;6.934;2023-10-19T18:07:04;15.50;99.90
35027;DHT22;60696;51.426;6.934;2023-10-19T18:09:31;15.50;99.90
35027;DHT22;60696;51.426;6.934;2023-10-19T18:12:00;15.40;99.90
35027;DHT22;60696;51.426;6.934;2023-10-19T18:14:26;15.40;99.90
35027;DHT22;60696;51.426;6.934;2023-10-19T18:16:51;15.20;99.90
35027;DHT22;60696;51.426;6.934;2023-10-19T18:19:17;15.10;99.90
35027;DHT22;60696;51.426;6.934;2023-10-19T18:21:44;15.10;99.90
35027;DHT22;60696;51.426;6.934;2023-10-19T18:24:10;15.10;99.90
35027;DHT22;60696;51.426;6.934;2023-10-19T18:26:37;15.00;99.90
35027;DHT22;60696;51.426;6.934;2023-10-19T18:29:03;15.00;99.90
35027;DHT22;60696;51.426;6.934;2023-10-19T18:31:30;15.10;99.90
35027;DHT22;60696;51.426;6.934;2023-10-19T18:33:56;15.10;99.90
35027;DHT22;60696;51.426;6.934;2023-10-19T18:36:25;15.20;99.90
35027;DHT22;60696;51.426;6.934;2023-10-19T18:38:56;15.20;99.90
35027;DHT22;60696;51.426;6.934;2023-10-19T18:41:22;15.40;99.90
35027;DHT22;60696;51.426;6.934;2023-10-19T18:43:54;15.40;99.90
35027;DHT22;60696;51.426;6.934;2023-10-19T18:46:20;15.30;99.90
35027;DHT22;60696;51.426;6.934;2023-10-19T18:48:46;15.30;99.90
35027;DHT22;60696;51.426;6.934;2023-10-19T18:51:12;15.20;99.90
35027;DHT22;60696;51.426;6.934;2023-10-19T18:53:38;15.20;99.90
35027;DHT22;60696;51.426;6.934;2023-10-19T18:56:04;15.10;99.90
35027;DHT22;60696;51.426;6.934;2023-10-19T18:58:33;15.10;99.90
35027;DHT22;60696;51.426;6.934;2023-10-19T19:01:00;15.10;99.90
35027;DHT22;60696;51.426;6.934;2023-10-19T19:03:28;15.10;99.90
35027;DHT22;60696;51.426;6.934;2023-10-19T19:05:58;15.00;99.90
35027;DHT22;60696;51.426;6.934;2023-10-19T19:08:28;14.90;99.90
35027;DHT22;60696;51.426;6.934;2023-10-19T19:10:55;14.90;99.90
35027;DHT22;60696;51.426;6.934;2023-10-19T19:13:23;14.90;99.90
35027;DHT22;60696;51.426;6.934;2023-10-19T19:15:52;15.00;99.90
35027;DHT22;60696;51.426;6.934;2023-10-19T19:18:19;15.10;99.90
35027;DHT22;60696;51.426;6.934;2023-10-19T19:20:45;15.20;99.90
35027;DHT22;60696;51.426;6.934;2023-10-19T19:23:14;15.20;99.90
35027;DHT22;60696;51.426;6.934;2023-10-19T19:25:42;15.20;99.90
35027;DHT22;60696;51.426;6.934;2023-10-19T19:28:08;15.10;99.90
35027;DHT22;60696;51.426;6.934;2023-10-19T19:30:38;15.10;99.90
35027;DHT22;60696;51.426;6.934;2023-10-19T19:33:04;15.00;99.90
35027;DHT22;60696;51.426;6.934;2023-10-19T19:35:31;15.10;99.90
35027;DHT22;60696;51.426;6.934;2023-10-19T19:37:57;15.00;99.90
35027;DHT22;60696;51.426;6.934;2023-10-19T19:40:23;15.10;99.90
35027;DHT22;60696;51.426;6.934;2023-10-19T19:42:51;15.00;99.90
35027;DHT22;60696;51.426;6.934;2023-10-19T19:45:17;15.00;99.90
35027;DHT22;60696;51.426;6.934;2023-10-19T19:47:47;15.00;99.90